Ashton, ID

12:00 PM MDT on August 30, 2015 (GMT -0600)
ComstockRD | | Change Station
CLOSE
Current Station
Personal Weather Station
Location: Ashton, ID
Elevation: 5260 ft
Nearby Weather Stations

Elev 5260 ft 44.07 °N, 111.45 °W | Updated 2 seconds ago

Partly Cloudy
Partly Cloudy
71.8 °F
Feels Like 77 °F
N
10.0
Wind Variable Wind from SW
Gusts 12.0 mph

Today
High -- | Low -- °F
--% Chance of Precip.
Yesterday
High -- | Low -- °F
Precip. -- in
6:46 AM 8:05 PM
Full, 99% visible
Pressure 29.87 in
Visibility 10.0 miles
Clouds Few 3700 ft
Scattered Clouds 5500 ft
Mostly Cloudy 8500 ft
Heat Index 77 °F
Dew Point 45 °F
Humidity 38%
Rainfall 0.02 in
Snow Depth Not available.
UV 5 out of 12
Pollen 8.80 out of 12
Air Quality Not available.
Flu Activity Not available.
METAR KDIJ 301756Z AUTO 23008KT 10SM FEW037 SCT055 BKN085 22/06 A3013 RMK AO2 50006 T02220055 10227 20144 SLP114
Pressure 29.87 in
Visibility 10.0 miles
Clouds Few 3700 ft
Scattered Clouds 5500 ft
Mostly Cloudy 8500 ft
Heat Index 77 °F
Dew Point 45 °F
Humidity 38%
Rainfall 0.02 in
Snow Depth Not available.
UV 5 out of 12
Pollen 8.80 out of 12
Air Quality Not available.
Flu Activity Not available.
METAR KDIJ 301756Z AUTO 23008KT 10SM FEW037 SCT055 BKN085 22/06 A3013 RMK AO2 50006 T02220055 10227 20144 SLP114

10-Day Weather Forecast

×

Almanac

Astronomy

Aug. 30, 2015 Rise Set
Actual Time
Civil Twilight
Nautical Twilight
Astronomical Twilight
Moon
Length of Visible Light
Length of Day
Tomorrow will be .
, % of the Moon is Illuminated

Today's Extremes

State Highs State Lows

Community

WunderPhotos

Upload Photos

1,851,021 photos uploaded!

WunderBlogs® & News

Nearby

Air Quality

  Air Quality AQ Index Pollutant
Not available.

Snow Depth

Station Depth Elevation

Earthquake Activity

City Distance Mag. Time & Date
Minimum magnitude displayed is 2.5.

Coastal Water Temperatures

Place Temperature

Stations

Nearby Weather Stations

Station Location Temp. Windchill Dew Point Humidity Wind Precip. Elev Updated Type